createdAt,value
2023-06-20T00:02:12.666Z,18.00
2023-06-20T00:04:46.883Z,17.90
2023-06-20T00:07:21.137Z,17.90
2023-06-20T00:09:55.496Z,17.80
2023-06-20T00:12:29.773Z,17.72
2023-06-20T00:15:05.412Z,17.70
2023-06-20T00:17:40.635Z,17.70
2023-06-20T00:20:15.906Z,17.70
2023-06-20T00:22:52.297Z,17.70
2023-06-20T00:25:27.258Z,17.70
2023-06-20T00:28:03.618Z,17.70
2023-06-20T00:30:38.212Z,17.60
2023-06-20T00:33:12.476Z,17.50
2023-06-20T00:35:46.772Z,17.50
2023-06-20T00:38:21.154Z,17.50
2023-06-20T00:40:55.391Z,17.48
2023-06-20T00:43:29.722Z,17.40
2023-06-20T00:46:06.093Z,17.30
2023-06-20T00:48:40.405Z,17.20
2023-06-20T00:51:14.996Z,17.10
2023-06-20T00:53:52.673Z,17.00
2023-06-20T00:56:28.673Z,17.00
2023-06-20T00:59:03.824Z,16.90
2023-06-20T01:01:38.438Z,16.90
2023-06-20T01:04:13.310Z,16.84
2023-06-20T01:07:01.233Z,16.78
2023-06-20T01:09:50.787Z,16.70
2023-06-20T01:12:32.093Z,16.72
2023-06-20T01:15:18.214Z,16.80
2023-06-20T01:18:04.293Z,16.80
2023-06-20T01:20:45.681Z,16.90
2023-06-20T01:23:33.209Z,16.90
2023-06-20T01:26:15.705Z,16.90
2023-06-20T01:28:56.796Z,17.00
2023-06-20T01:31:38.762Z,17.00
2023-06-20T01:34:21.155Z,17.00
2023-06-20T01:37:00.982Z,17.00
2023-06-20T01:39:44.262Z,17.00
2023-06-20T01:42:26.165Z,17.00
2023-06-20T01:45:07.740Z,17.00
2023-06-20T01:47:45.476Z,17.00
2023-06-20T01:50:23.088Z,17.00
2023-06-20T01:52:59.087Z,17.00
2023-06-20T01:55:37.148Z,16.90
2023-06-20T01:58:13.997Z,16.90
2023-06-20T02:00:49.996Z,16.90
2023-06-20T02:03:26.630Z,16.90
2023-06-20T02:06:04.848Z,16.80
2023-06-20T02:08:40.120Z,16.80
2023-06-20T02:11:16.586Z,16.72
2023-06-20T02:13:54.205Z,16.70
2023-06-20T02:16:29.956Z,16.70
2023-06-20T02:19:04.370Z,16.70
2023-06-20T02:21:46.591Z,16.70
2023-06-20T02:24:27.717Z,16.68
2023-06-20T02:27:04.535Z,16.60
2023-06-20T02:29:41.816Z,16.60
2023-06-20T02:32:19.784Z,16.60
2023-06-20T02:34:56.897Z,16.60
2023-06-20T02:37:34.588Z,16.60
2023-06-20T02:40:14.131Z,16.60
2023-06-20T02:42:48.326Z,16.60
2023-06-20T02:45:23.261Z,16.60
2023-06-20T02:48:20.648Z,16.60
2023-06-20T02:51:08.765Z,16.60
2023-06-20T02:53:57.415Z,16.50
2023-06-20T02:56:38.616Z,16.50
2023-06-20T02:59:16.051Z,16.40
2023-06-20T03:01:57.200Z,16.40
2023-06-20T03:04:34.994Z,16.40
2023-06-20T03:07:09.971Z,16.40
2023-06-20T03:09:45.507Z,16.40
2023-06-20T03:12:20.078Z,16.40
2023-06-20T03:14:54.374Z,16.40
2023-06-20T03:17:29.818Z,16.40
2023-06-20T03:20:05.069Z,16.40
2023-06-20T03:22:41.103Z,16.30
2023-06-20T03:25:16.390Z,16.30
2023-06-20T03:27:50.836Z,16.30
2023-06-20T03:30:25.420Z,16.30
2023-06-20T03:32:59.870Z,16.30
2023-06-20T03:35:34.617Z,16.40
2023-06-20T03:38:09.271Z,16.50
2023-06-20T03:40:44.222Z,16.50
2023-06-20T03:43:19.316Z,16.60
2023-06-20T03:45:53.655Z,16.60
2023-06-20T03:48:27.968Z,16.60
2023-06-20T03:51:03.317Z,16.70
2023-06-20T03:53:37.804Z,16.72
2023-06-20T03:56:12.335Z,16.80
2023-06-20T03:58:46.724Z,16.90
2023-06-20T04:01:21.291Z,16.90
2023-06-20T04:03:57.824Z,17.00
2023-06-20T04:06:32.726Z,17.10
2023-06-20T04:09:07.441Z,17.20
2023-06-20T04:11:41.663Z,17.30
2023-06-20T04:14:16.265Z,17.40
2023-06-20T04:16:51.020Z,17.50
2023-06-20T04:19:28.168Z,17.60
2023-06-20T04:22:02.604Z,17.70
2023-06-20T04:24:38.101Z,17.76
2023-06-20T04:27:13.039Z,17.80
2023-06-20T04:29:47.574Z,17.90
2023-06-20T04:32:21.976Z,18.00
2023-06-20T04:34:57.222Z,18.10
2023-06-20T04:37:32.268Z,18.20
2023-06-20T04:40:13.403Z,18.30
2023-06-20T04:42:47.774Z,18.40
2023-06-20T04:45:24.668Z,18.56
2023-06-20T04:47:59.373Z,18.70
2023-06-20T04:50:34.030Z,18.80
2023-06-20T04:53:10.327Z,18.94
2023-06-20T04:55:44.845Z,19.10
2023-06-20T04:58:19.450Z,19.30
2023-06-20T05:00:53.907Z,19.50
2023-06-20T05:03:28.793Z,19.70
2023-06-20T05:06:03.264Z,20.00
2023-06-20T05:08:37.641Z,20.10
2023-06-20T05:11:11.933Z,20.30
2023-06-20T05:13:46.223Z,20.50
2023-06-20T05:16:20.942Z,20.72
2023-06-20T05:18:55.255Z,20.90
2023-06-20T05:21:29.512Z,21.06
2023-06-20T05:24:04.097Z,21.20
2023-06-20T05:26:38.408Z,21.34
2023-06-20T05:29:12.740Z,21.50
2023-06-20T05:31:47.388Z,21.60
2023-06-20T05:34:24.374Z,21.60
2023-06-20T05:36:58.777Z,21.70
2023-06-20T05:39:33.021Z,21.70
2023-06-20T05:42:08.543Z,21.80
2023-06-20T05:44:42.989Z,21.80
2023-06-20T05:47:19.679Z,21.90
2023-06-20T05:49:58.756Z,21.90
2023-06-20T05:52:33.193Z,22.00
2023-06-20T05:55:12.063Z,22.00
2023-06-20T05:57:46.341Z,22.10
2023-06-20T06:00:24.458Z,22.10
2023-06-20T06:02:58.980Z,22.18
2023-06-20T06:05:33.434Z,22.30
2023-06-20T06:08:11.154Z,22.30
2023-06-20T06:10:45.589Z,22.36
2023-06-20T06:13:20.036Z,22.40
2023-06-20T06:16:00.736Z,22.50
2023-06-20T06:18:37.823Z,22.60
2023-06-20T06:21:12.642Z,22.70
2023-06-20T06:23:49.053Z,22.80
2023-06-20T06:26:24.037Z,22.90
2023-06-20T06:28:58.699Z,23.00
2023-06-20T06:31:38.456Z,23.16
2023-06-20T06:34:17.826Z,23.32
2023-06-20T06:36:53.347Z,23.50
2023-06-20T06:39:28.269Z,23.70
2023-06-20T06:42:02.803Z,23.90
2023-06-20T06:44:37.203Z,24.10
2023-06-20T06:47:12.038Z,24.20
2023-06-20T06:49:46.367Z,24.26
2023-06-20T06:52:21.412Z,24.40
2023-06-20T06:54:55.964Z,24.56
2023-06-20T06:57:30.341Z,24.76
2023-06-20T07:00:10.819Z,24.96
2023-06-20T07:02:47.300Z,25.10
2023-06-20T07:05:21.932Z,25.20
2023-06-20T07:07:57.865Z,25.36
2023-06-20T07:10:32.351Z,25.50
2023-06-20T07:13:07.963Z,25.56
2023-06-20T07:15:42.388Z,25.70
2023-06-20T07:18:18.752Z,25.90
2023-06-20T07:20:53.516Z,26.10
2023-06-20T07:23:27.940Z,26.20
2023-06-20T07:26:02.566Z,26.28
2023-06-20T07:28:38.802Z,26.40
2023-06-20T07:31:20.625Z,26.50
2023-06-20T07:33:55.250Z,26.60
2023-06-20T07:36:29.772Z,26.60
2023-06-20T07:39:04.765Z,26.70
2023-06-20T07:41:39.203Z,26.80
2023-06-20T07:44:13.987Z,26.80
2023-06-20T07:46:48.727Z,26.90
2023-06-20T07:49:26.629Z,27.02
2023-06-20T07:52:01.570Z,27.10
2023-06-20T07:54:36.823Z,27.26
2023-06-20T07:57:15.539Z,27.40
2023-06-20T07:59:51.082Z,27.42
2023-06-20T08:02:33.193Z,27.50
2023-06-20T08:05:10.037Z,27.60
2023-06-20T08:07:48.306Z,27.80
2023-06-20T08:10:25.412Z,27.90
2023-06-20T08:13:01.940Z,28.02
2023-06-20T08:15:36.754Z,28.20
2023-06-20T08:18:12.277Z,28.20
2023-06-20T08:20:48.837Z,28.40
2023-06-20T08:23:30.032Z,28.60
2023-06-20T08:26:04.813Z,28.60
2023-06-20T08:28:39.610Z,28.70
2023-06-20T08:31:14.536Z,28.80
2023-06-20T08:33:49.353Z,29.00
2023-06-20T08:36:24.389Z,29.20
2023-06-20T08:39:00.566Z,29.44
2023-06-20T08:41:35.347Z,29.60
2023-06-20T08:44:11.066Z,29.68
2023-06-20T08:46:46.920Z,29.90
2023-06-20T08:49:22.079Z,30.00
2023-06-20T08:52:02.755Z,30.20
2023-06-20T08:54:44.009Z,30.42
2023-06-20T08:57:20.083Z,30.74
2023-06-20T08:59:57.283Z,31.00
2023-06-20T09:02:32.268Z,31.18
2023-06-20T09:05:12.473Z,31.20
2023-06-20T09:07:47.280Z,31.30
2023-06-20T09:10:26.957Z,31.32
2023-06-20T09:13:01.937Z,31.40
2023-06-20T09:15:37.902Z,31.72
2023-06-20T09:18:16.807Z,32.12
2023-06-20T09:20:51.470Z,32.60
2023-06-20T09:23:34.973Z,33.00
2023-06-20T09:26:20.892Z,32.72
2023-06-20T09:29:06.577Z,32.70
2023-06-20T09:31:50.492Z,32.86
2023-06-20T09:34:25.421Z,33.10
2023-06-20T09:37:02.612Z,33.20
2023-06-20T09:39:37.364Z,33.00
2023-06-20T09:42:17.078Z,33.00
2023-06-20T09:44:52.248Z,32.86
2023-06-20T09:47:27.171Z,33.42
2023-06-20T09:50:05.156Z,33.66
2023-06-20T09:52:49.006Z,34.06
2023-06-20T09:55:26.360Z,34.64
2023-06-20T09:58:05.274Z,35.24
2023-06-20T10:00:42.127Z,35.76
2023-06-20T10:03:17.989Z,35.96
2023-06-20T10:05:54.937Z,36.18
2023-06-20T10:08:30.848Z,36.76
2023-06-20T10:11:05.874Z,37.22
2023-06-20T10:13:41.414Z,37.70
2023-06-20T10:16:16.306Z,37.60
2023-06-20T10:18:54.285Z,37.70
2023-06-20T10:22:01.826Z,37.80
2023-06-20T10:24:37.384Z,37.46
2023-06-20T10:27:25.505Z,37.50
2023-06-20T10:30:05.302Z,37.80
2023-06-20T10:33:01.965Z,38.00
2023-06-20T10:35:36.980Z,38.10
2023-06-20T10:38:16.706Z,37.94
2023-06-20T10:41:09.823Z,37.60
2023-06-20T10:44:00.193Z,37.80
2023-06-20T10:46:50.654Z,38.00
2023-06-20T10:49:25.655Z,38.12
2023-06-20T10:52:01.144Z,38.62
2023-06-20T10:54:39.376Z,39.02
2023-06-20T10:57:13.949Z,39.20
2023-06-20T10:59:52.219Z,38.42
2023-06-20T11:02:28.282Z,38.06
2023-06-20T11:05:05.408Z,38.20
2023-06-20T11:07:52.823Z,38.10
2023-06-20T11:10:30.839Z,38.54
2023-06-20T11:13:07.373Z,38.80
2023-06-20T11:15:43.013Z,39.00
2023-06-20T11:18:17.862Z,38.90
2023-06-20T11:20:54.059Z,38.70
2023-06-20T11:23:37.981Z,38.90
2023-06-20T11:26:12.462Z,38.40
2023-06-20T11:28:47.053Z,38.40
2023-06-20T11:31:21.912Z,38.74
2023-06-20T11:34:10.104Z,39.40
2023-06-20T11:36:45.884Z,39.28
2023-06-20T11:39:20.516Z,39.12
2023-06-20T11:41:55.209Z,39.32
2023-06-20T11:44:31.653Z,39.60
2023-06-20T11:47:08.048Z,39.46
2023-06-20T11:49:44.998Z,39.62
2023-06-20T11:52:29.565Z,39.90
2023-06-20T11:55:05.260Z,40.78
2023-06-20T11:57:39.908Z,41.44
2023-06-20T12:00:26.215Z,42.26
2023-06-20T12:03:01.156Z,42.72
2023-06-20T12:05:39.511Z,42.40
2023-06-20T12:08:15.887Z,42.20
2023-06-20T12:11:07.148Z,41.90
2023-06-20T12:13:49.684Z,42.22
2023-06-20T12:16:26.698Z,42.50
2023-06-20T12:19:05.505Z,42.40
2023-06-20T12:21:41.082Z,42.20
2023-06-20T12:24:17.335Z,41.68
2023-06-20T12:26:53.135Z,41.08
2023-06-20T12:29:27.730Z,40.50
2023-06-20T12:32:02.225Z,40.30
2023-06-20T12:34:37.083Z,40.10
2023-06-20T12:37:14.482Z,40.42
2023-06-20T12:39:49.324Z,40.50
2023-06-20T12:42:24.802Z,40.40
2023-06-20T12:44:59.181Z,40.50
2023-06-20T12:47:34.153Z,40.50
2023-06-20T12:50:11.433Z,40.50
2023-06-20T12:52:46.948Z,40.40
2023-06-20T12:55:22.188Z,40.10
2023-06-20T12:57:58.604Z,39.70
2023-06-20T13:00:35.180Z,39.50
2023-06-20T13:03:10.387Z,39.10
2023-06-20T13:05:45.874Z,38.80
2023-06-20T13:08:21.774Z,38.40
2023-06-20T13:10:56.212Z,38.20
2023-06-20T13:13:30.863Z,38.20
2023-06-20T13:16:06.192Z,38.08
2023-06-20T13:18:44.139Z,38.10
2023-06-20T13:21:18.564Z,37.68
2023-06-20T13:24:08.423Z,37.60
2023-06-20T13:26:43.929Z,37.30
2023-06-20T13:29:18.381Z,36.92
2023-06-20T13:31:52.818Z,36.80
2023-06-20T13:34:27.411Z,36.70
2023-06-20T13:37:02.097Z,36.60
2023-06-20T13:39:36.671Z,36.40
2023-06-20T13:42:11.720Z,36.30
2023-06-20T13:44:46.035Z,36.08
2023-06-20T13:47:20.751Z,35.94
2023-06-20T13:49:55.296Z,35.70
2023-06-20T13:52:29.823Z,35.50
2023-06-20T13:55:04.706Z,35.70
2023-06-20T13:57:40.842Z,35.70
2023-06-20T14:00:18.132Z,35.70
2023-06-20T14:02:52.913Z,35.60
2023-06-20T14:05:27.637Z,35.78
2023-06-20T14:08:01.964Z,36.10
2023-06-20T14:10:36.586Z,36.00
2023-06-20T14:13:13.470Z,35.90
2023-06-20T14:15:49.226Z,35.90
2023-06-20T14:18:25.231Z,36.10
2023-06-20T14:20:59.919Z,36.10
2023-06-20T14:23:34.511Z,36.20
2023-06-20T14:26:11.460Z,36.78
2023-06-20T14:28:46.760Z,37.32
2023-06-20T14:31:21.550Z,37.52
2023-06-20T14:33:56.347Z,38.14
2023-06-20T14:36:36.209Z,39.72
2023-06-20T14:39:11.471Z,40.20
2023-06-20T14:41:46.501Z,39.70
2023-06-20T14:44:21.100Z,39.70
2023-06-20T14:46:56.600Z,39.20
2023-06-20T14:49:32.491Z,38.60
2023-06-20T14:52:07.529Z,38.10
2023-06-20T14:54:42.779Z,37.90
2023-06-20T14:57:17.314Z,38.00
2023-06-20T14:59:52.004Z,37.70
2023-06-20T15:02:28.998Z,37.50
2023-06-20T15:05:09.684Z,37.40
2023-06-20T15:07:44.509Z,37.10
2023-06-20T15:10:19.433Z,36.80
2023-06-20T15:12:57.214Z,36.60
2023-06-20T15:15:32.289Z,36.50
2023-06-20T15:18:08.306Z,36.16
2023-06-20T15:20:43.517Z,35.90
2023-06-20T15:23:18.377Z,35.60
2023-06-20T15:25:53.607Z,35.30
2023-06-20T15:28:28.673Z,34.98
2023-06-20T15:31:04.836Z,34.60
2023-06-20T15:33:39.811Z,34.30
2023-06-20T15:36:14.989Z,34.00
2023-06-20T15:38:50.425Z,33.78
2023-06-20T15:41:25.701Z,33.50
2023-06-20T15:44:00.762Z,33.30
2023-06-20T15:46:51.820Z,33.06
2023-06-20T15:49:30.322Z,32.80
2023-06-20T15:52:05.621Z,32.60
2023-06-20T15:54:40.417Z,32.40
2023-06-20T15:57:14.945Z,32.18
2023-06-20T15:59:50.650Z,31.98
2023-06-20T16:02:25.887Z,31.80
2023-06-20T16:05:00.857Z,31.60
2023-06-20T16:07:35.727Z,31.44
2023-06-20T16:10:12.686Z,31.30
2023-06-20T16:12:48.016Z,31.20
2023-06-20T16:15:22.842Z,31.10
2023-06-20T16:17:57.464Z,31.00
2023-06-20T16:20:32.308Z,30.90
2023-06-20T16:23:07.220Z,30.80
2023-06-20T16:25:42.586Z,30.80
2023-06-20T16:28:17.736Z,30.70
2023-06-20T16:30:52.458Z,30.70
2023-06-20T16:33:40.594Z,30.70
2023-06-20T16:36:23.823Z,30.70
2023-06-20T16:38:58.653Z,30.60
2023-06-20T16:41:33.642Z,30.50
2023-06-20T16:44:10.001Z,30.30
2023-06-20T16:46:47.990Z,30.20
2023-06-20T16:49:23.637Z,30.10
2023-06-20T16:51:58.441Z,30.10
2023-06-20T16:54:33.130Z,30.00
2023-06-20T16:57:09.187Z,29.90
2023-06-20T16:59:45.800Z,29.80
2023-06-20T17:02:20.731Z,29.70
2023-06-20T17:04:56.379Z,29.60
2023-06-20T17:07:34.672Z,29.44
2023-06-20T17:10:11.591Z,29.30
2023-06-20T17:12:46.776Z,29.12
2023-06-20T17:15:21.610Z,29.00
2023-06-20T17:18:00.050Z,28.90
2023-06-20T17:20:35.163Z,28.72
2023-06-20T17:23:10.234Z,28.64
2023-06-20T17:25:46.179Z,28.58
2023-06-20T17:28:21.699Z,28.46
2023-06-20T17:30:57.363Z,28.40
2023-06-20T17:33:32.383Z,28.30
2023-06-20T17:36:07.270Z,28.30
2023-06-20T17:38:41.893Z,28.20
2023-06-20T17:41:18.064Z,28.20
2023-06-20T17:43:52.767Z,28.10
2023-06-20T17:46:27.625Z,28.10
2023-06-20T17:49:02.577Z,28.00
2023-06-20T17:51:39.849Z,27.94
2023-06-20T17:54:15.018Z,27.90
2023-06-20T17:56:49.935Z,27.80
2023-06-20T17:59:25.189Z,27.80
2023-06-20T18:02:00.071Z,27.70
2023-06-20T18:04:34.916Z,27.60
2023-06-20T18:07:10.321Z,27.50
2023-06-20T18:09:45.937Z,27.40
2023-06-20T18:12:20.705Z,27.30
2023-06-20T18:14:55.054Z,27.20
2023-06-20T18:17:29.884Z,27.10
2023-06-20T18:20:05.058Z,27.00
2023-06-20T18:22:39.693Z,26.82
2023-06-20T18:25:15.166Z,26.80
2023-06-20T18:27:51.920Z,26.70
2023-06-20T18:30:27.305Z,26.60
2023-06-20T18:33:02.744Z,26.50
2023-06-20T18:35:37.738Z,26.40
2023-06-20T18:38:14.035Z,26.40
2023-06-20T18:40:48.806Z,26.30
2023-06-20T18:43:23.532Z,26.20
2023-06-20T18:45:58.354Z,26.10
2023-06-20T18:48:33.346Z,26.00
2023-06-20T18:51:10.697Z,25.90
2023-06-20T18:53:45.663Z,25.70
2023-06-20T18:56:20.992Z,25.60
2023-06-20T18:58:56.590Z,25.50
2023-06-20T19:01:31.684Z,25.34
2023-06-20T19:04:06.514Z,25.30
2023-06-20T19:06:41.375Z,25.14
2023-06-20T19:09:16.504Z,25.08
2023-06-20T19:11:51.811Z,24.90
2023-06-20T19:14:26.484Z,24.80
2023-06-20T19:17:01.287Z,24.78
2023-06-20T19:19:36.081Z,24.70
2023-06-20T19:22:11.956Z,24.60
2023-06-20T19:24:48.551Z,24.50
2023-06-20T19:27:24.321Z,24.40
2023-06-20T19:29:59.228Z,24.40
2023-06-20T19:32:34.063Z,24.30
2023-06-20T19:35:11.019Z,24.20
2023-06-20T19:37:45.712Z,24.18
2023-06-20T19:40:20.923Z,24.10
2023-06-20T19:42:55.554Z,24.10
2023-06-20T19:45:34.899Z,24.00
2023-06-20T19:48:10.949Z,24.00
2023-06-20T19:50:45.755Z,24.00
2023-06-20T19:53:20.860Z,23.90
2023-06-20T19:55:56.033Z,23.90
2023-06-20T19:58:30.497Z,23.80
2023-06-20T20:01:05.482Z,23.80
2023-06-20T20:03:40.354Z,23.70
2023-06-20T20:06:15.223Z,23.64
2023-06-20T20:08:49.791Z,23.60
2023-06-20T20:11:24.975Z,23.50
2023-06-20T20:13:59.656Z,23.50
2023-06-20T20:16:35.044Z,23.40
2023-06-20T20:19:10.123Z,23.40
2023-06-20T20:21:44.922Z,23.30
2023-06-20T20:24:20.311Z,23.30
2023-06-20T20:26:56.009Z,23.20
2023-06-20T20:29:30.891Z,23.10
2023-06-20T20:32:05.721Z,23.04
2023-06-20T20:34:40.385Z,22.96
2023-06-20T20:37:15.127Z,22.90
2023-06-20T20:39:50.595Z,22.80
2023-06-20T20:42:25.288Z,22.70
2023-06-20T20:45:00.437Z,22.62
2023-06-20T20:47:35.200Z,22.54
2023-06-20T20:50:12.935Z,22.50
2023-06-20T20:52:48.055Z,22.40
2023-06-20T20:55:22.962Z,22.40
2023-06-20T20:57:57.805Z,22.30
2023-06-20T21:00:32.841Z,22.30
2023-06-20T21:03:08.345Z,22.30
2023-06-20T21:05:43.443Z,22.26
2023-06-20T21:08:18.216Z,22.20
2023-06-20T21:10:53.510Z,22.10
2023-06-20T21:13:28.391Z,22.10
2023-06-20T21:16:03.410Z,22.00
2023-06-20T21:18:38.535Z,22.00
2023-06-20T21:21:13.298Z,21.90
2023-06-20T21:23:49.231Z,21.80
2023-06-20T21:26:23.976Z,21.70
2023-06-20T21:28:58.682Z,21.70
2023-06-20T21:31:36.312Z,21.60
2023-06-20T21:34:10.971Z,21.60
2023-06-20T21:36:45.692Z,21.60
2023-06-20T21:39:22.053Z,21.60
2023-06-20T21:41:56.786Z,21.50
2023-06-20T21:44:31.576Z,21.50
2023-06-20T21:47:07.426Z,21.50
2023-06-20T21:49:42.594Z,21.40
2023-06-20T21:52:17.947Z,21.40
2023-06-20T21:54:54.084Z,21.40
2023-06-20T21:57:29.021Z,21.40
2023-06-20T22:00:04.212Z,21.40
2023-06-20T22:02:43.787Z,21.30
2023-06-20T22:05:20.486Z,21.20
2023-06-20T22:07:55.248Z,21.16
2023-06-20T22:10:30.167Z,21.10
2023-06-20T22:13:05.132Z,21.10
2023-06-20T22:15:39.791Z,21.20
2023-06-20T22:18:14.449Z,21.10
2023-06-20T22:20:49.139Z,21.10
2023-06-20T22:23:23.756Z,21.10
2023-06-20T22:25:59.725Z,21.10
2023-06-20T22:28:34.434Z,21.10
2023-06-20T22:31:10.141Z,21.10
2023-06-20T22:33:44.872Z,21.10
2023-06-20T22:36:20.690Z,21.02
2023-06-20T22:38:55.797Z,21.00
2023-06-20T22:41:30.557Z,21.00
2023-06-20T22:44:05.392Z,21.00
2023-06-20T22:46:40.167Z,20.90
2023-06-20T22:49:14.778Z,20.90
2023-06-20T22:51:52.270Z,20.90
2023-06-20T22:54:28.189Z,20.90
2023-06-20T22:57:03.030Z,20.90
2023-06-20T22:59:37.586Z,20.90
2023-06-20T23:02:13.007Z,20.90
2023-06-20T23:04:48.031Z,20.90
2023-06-20T23:07:24.368Z,20.90
2023-06-20T23:09:58.895Z,20.90
2023-06-20T23:12:33.595Z,20.88
2023-06-20T23:15:10.687Z,20.80
2023-06-20T23:17:45.528Z,20.80
2023-06-20T23:20:20.468Z,20.80
2023-06-20T23:22:55.601Z,20.80
2023-06-20T23:25:41.498Z,20.72
2023-06-20T23:28:16.746Z,20.70
2023-06-20T23:30:51.698Z,20.60
2023-06-20T23:33:26.515Z,20.50
2023-06-20T23:36:01.754Z,20.50
2023-06-20T23:38:37.050Z,20.40
2023-06-20T23:41:11.724Z,20.40
2023-06-20T23:43:46.291Z,20.40
2023-06-20T23:46:21.295Z,20.32
2023-06-20T23:48:55.864Z,20.30
2023-06-20T23:51:30.408Z,20.30
2023-06-20T23:54:06.201Z,20.26
2023-06-20T23:56:40.913Z,20.20
2023-06-20T23:59:15.361Z,20.20
